Gulf — V2BB5 — position and weather

sailwx.info

Track history (hours):
 
Tides and Currents Weather Stations Pressure Air Temp Water Temp Dewpoint Dewpoint Depression Visibility Wind Speed Wind Dir Waves Ship Positions

Gulf

Last reported at 2015-Apr-22 05:23 UTC. Time now 2015-May-04 07:00 UTC.
Position N 40°12' E 019°11'.
Warning: this ship's position is 12 days out of date.

Length 96 m; draft 5.5 m.

Type: Cargo ship. MMSI: 304320000.

Date/timePositionNaut miles runAvg speedWind from/ knotsBaromVisibWave heightAir tempDewpointWater temp
2015-Apr-22 05:23N 40°12' E 019°11'6 6.4
2015-Apr-22 04:26N 40°06' E 019°12'6 6.9
2015-Apr-22 03:33N 39°60' E 019°13'8 7.3
2015-Apr-22 02:30N 39°52' E 019°15'7 7.3
2015-Apr-22 01:32N 39°46' E 019°19'7 7.1
2015-Apr-22 00:33N 39°40' E 019°25'8 6.8
2015-Apr-21 23:23N 39°34' E 019°30'8 6.9
2015-Apr-21 22:15N 39°27' E 019°36'5 6.8
2015-Apr-21 21:33N 39°24' E 019°40'7 6.4
2015-Apr-21 20:30N 39°18' E 019°46'  
2015-Apr-18 14:33N 38°11' E 022°58'  
2015-Apr-15 01:21N 36°14' E 024°27'22 7.7
2015-Apr-14 22:33N 36°11' E 024°53'8 8.2
2015-Apr-14 21:33N 36°11' E 025°03'9 8.7
2015-Apr-14 20:33N 36°11' E 025°14'9 8.4
2015-Apr-14 19:30N 36°11' E 025°25'10 8.2
2015-Apr-14 18:20N 36°11' E 025°37'6 8.0
2015-Apr-14 17:33N 36°10' E 025°45'8 7.9
2015-Apr-14 16:33N 36°10' E 025°54'8 8.3
2015-Apr-14 15:33N 36°10' E 026°05'8 8.2
2015-Apr-14 14:33N 36°10' E 026°15'8 7.5
2015-Apr-14 13:33N 36°11' E 026°24'  
Track history (hours):
 
Tides and Currents Weather Stations Pressure Air Temp Water Temp Dewpoint Dewpoint Depression Visibility Wind Speed Wind Dir Waves Ship Positions

Gulf

Last reported at 2015-Apr-22 05:23 UTC. Time now 2015-May-04 07:00 UTC.
Position N 40°12' E 019°11'.
Warning: this ship's position is 12 days out of date.

Length 96 m; draft 5.5 m.

Type: Cargo ship. MMSI: 304320000.

Date/timePositionNaut miles runAvg speedWind from/ knotsBaromVisibWave heightAir tempDewpointWater temp
2015-Apr-22 05:23N 40°12' E 019°11'6 6.4
2015-Apr-22 04:26N 40°06' E 019°12'6 6.9
2015-Apr-22 03:33N 39°60' E 019°13'8 7.3
2015-Apr-22 02:30N 39°52' E 019°15'7 7.3
2015-Apr-22 01:32N 39°46' E 019°19'7 7.1
2015-Apr-22 00:33N 39°40' E 019°25'8 6.8
2015-Apr-21 23:23N 39°34' E 019°30'8 6.9
2015-Apr-21 22:15N 39°27' E 019°36'5 6.8
2015-Apr-21 21:33N 39°24' E 019°40'7 6.4
2015-Apr-21 20:30N 39°18' E 019°46'  
2015-Apr-18 14:33N 38°11' E 022°58'  
2015-Apr-15 01:21N 36°14' E 024°27'22 7.7
2015-Apr-14 22:33N 36°11' E 024°53'8 8.2
2015-Apr-14 21:33N 36°11' E 025°03'9 8.7
2015-Apr-14 20:33N 36°11' E 025°14'9 8.4
2015-Apr-14 19:30N 36°11' E 025°25'10 8.2
2015-Apr-14 18:20N 36°11' E 025°37'6 8.0
2015-Apr-14 17:33N 36°10' E 025°45'8 7.9
2015-Apr-14 16:33N 36°10' E 025°54'8 8.3
2015-Apr-14 15:33N 36°10' E 026°05'8 8.2
2015-Apr-14 14:33N 36°10' E 026°15'8 7.5
2015-Apr-14 13:33N 36°11' E 026°24'  

Dump ship's entire track history